createdAt,value
2017-06-08T00:00:07.947Z,1009.81
2017-06-08T00:00:17.943Z,1009.81
2017-06-08T00:00:27.933Z,1009.78
2017-06-08T00:00:37.930Z,1009.82
2017-06-08T00:00:47.926Z,1009.82
2017-06-08T00:00:57.921Z,1009.85
2017-06-08T00:01:07.913Z,1009.75
2017-06-08T00:01:17.907Z,1009.75
2017-06-08T00:01:27.908Z,1009.82
2017-06-08T00:01:37.900Z,1009.79
2017-06-08T00:01:47.892Z,1009.82
2017-06-08T00:01:57.887Z,1009.8
2017-06-08T00:02:07.547Z,1009.77
2017-06-08T00:02:17.879Z,1009.77
2017-06-08T00:02:27.874Z,1009.75
2017-06-08T00:02:38.221Z,1009.76
2017-06-08T00:02:48.212Z,1009.78
2017-06-08T00:02:57.855Z,1009.78
2017-06-08T00:03:07.848Z,1009.75
2017-06-08T00:03:17.844Z,1009.75
2017-06-08T00:03:27.839Z,1009.79
2017-06-08T00:03:37.834Z,1009.75
2017-06-08T00:03:47.831Z,1009.79
2017-06-08T00:03:57.823Z,1009.79
2017-06-08T00:04:07.483Z,1009.77
2017-06-08T00:04:17.479Z,1009.72
2017-06-08T00:04:27.808Z,1009.81
2017-06-08T00:04:37.805Z,1009.79
2017-06-08T00:04:47.795Z,1009.78
2017-06-08T00:04:58.142Z,1009.76
2017-06-08T00:05:07.450Z,1009.72
2017-06-08T00:05:17.780Z,1009.74
2017-06-08T00:05:27.776Z,1009.73
2017-06-08T00:05:37.768Z,1009.73
2017-06-08T00:05:47.766Z,1009.75
2017-06-08T00:05:57.757Z,1009.73
2017-06-08T00:06:07.753Z,1009.71
2017-06-08T00:06:17.768Z,1009.72
2017-06-08T00:06:27.743Z,1009.7
2017-06-08T00:06:37.741Z,1009.73
2017-06-08T00:06:47.733Z,1009.69
2017-06-08T00:06:57.729Z,1009.7
2017-06-08T00:07:07.724Z,1009.69
2017-06-08T00:07:17.717Z,1009.73
2017-06-08T00:07:27.713Z,1009.67
2017-06-08T00:07:37.707Z,1009.68
2017-06-08T00:07:47.698Z,1009.68
2017-06-08T00:07:57.698Z,1009.68
2017-06-08T00:08:07.692Z,1009.67
2017-06-08T00:08:17.687Z,1009.66
2017-06-08T00:08:27.681Z,1009.71
2017-06-08T00:08:37.335Z,1009.72
2017-06-08T00:08:47.336Z,1009.66
2017-06-08T00:08:57.660Z,1009.73
2017-06-08T00:09:07.658Z,1009.67
2017-06-08T00:09:17.902Z,1009.67
2017-06-08T00:09:27.646Z,1009.65
2017-06-08T00:09:37.665Z,1009.63
2017-06-08T00:09:47.636Z,1009.69
2017-06-08T00:09:57.294Z,1009.64
2017-06-08T00:10:07.628Z,1009.69
2017-06-08T00:10:17.626Z,1009.65
2017-06-08T00:10:27.615Z,1009.7
2017-06-08T00:10:37.611Z,1009.71
2017-06-08T00:10:47.602Z,1009.68
2017-06-08T00:10:57.608Z,1009.67
2017-06-08T00:11:07.598Z,1009.69
2017-06-08T00:11:17.586Z,1009.72
2017-06-08T00:11:27.249Z,1009.68
2017-06-08T00:11:37.574Z,1009.73
2017-06-08T00:11:47.572Z,1009.62
2017-06-08T00:11:57.567Z,1009.68
2017-06-08T00:12:07.563Z,1009.73
2017-06-08T00:12:17.592Z,1009.77
2017-06-08T00:12:27.552Z,1009.65
2017-06-08T00:12:37.545Z,1009.72
2017-06-08T00:12:47.205Z,1009.75
2017-06-08T00:12:57.530Z,1009.72
2017-06-08T00:13:07.526Z,1009.73
2017-06-08T00:13:17.322Z,1009.68
2017-06-08T00:13:27.520Z,1009.72
2017-06-08T00:13:37.513Z,1009.74
2017-06-08T00:13:47.307Z,1009.73
2017-06-08T00:13:57.504Z,1009.74
2017-06-08T00:14:07.495Z,1009.69
2017-06-08T00:14:16.821Z,1009.74
2017-06-08T00:14:27.149Z,1009.71
2017-06-08T00:14:37.481Z,1009.66
2017-06-08T00:14:47.473Z,1009.71
2017-06-08T00:14:57.134Z,1009.7
2017-06-08T00:15:07.466Z,1009.75
2017-06-08T00:15:17.459Z,1009.68
2017-06-08T00:15:27.453Z,1009.66
2017-06-08T00:15:37.447Z,1009.66
2017-06-08T00:15:47.441Z,1009.68
2017-06-08T00:15:57.437Z,1009.67
2017-06-08T00:16:07.433Z,1009.69
2017-06-08T00:16:17.427Z,1009.74
2017-06-08T00:16:27.425Z,1009.72
2017-06-08T00:16:37.416Z,1009.67
2017-06-08T00:16:47.412Z,1009.66
2017-06-08T00:16:57.405Z,1009.67
2017-06-08T00:17:07.065Z,1009.64
2017-06-08T00:17:17.395Z,1009.66
2017-06-08T00:17:27.391Z,1009.66
2017-06-08T00:17:37.384Z,1009.68
2017-06-08T00:17:47.044Z,1009.61
2017-06-08T00:17:57.401Z,1009.67
2017-06-08T00:18:07.030Z,1009.71
2017-06-08T00:18:17.363Z,1009.68
2017-06-08T00:18:27.358Z,1009.65
2017-06-08T00:18:37.352Z,1009.66
2017-06-08T00:18:47.346Z,1009.69
2017-06-08T00:18:57.342Z,1009.66
2017-06-08T00:19:07.033Z,1009.64
2017-06-08T00:19:17.582Z,1009.66
2017-06-08T00:19:27.325Z,1009.69
2017-06-08T00:19:37.319Z,1009.67
2017-06-08T00:19:47.313Z,1009.65
2017-06-08T00:19:57.309Z,1009.64
2017-06-08T00:20:07.304Z,1009.67
2017-06-08T00:20:17.296Z,1009.65
2017-06-08T00:20:27.294Z,1009.63
2017-06-08T00:20:36.951Z,1009.64
2017-06-08T00:20:47.280Z,1009.64
2017-06-08T00:20:57.277Z,1009.65
2017-06-08T00:21:07.271Z,1009.64
2017-06-08T00:21:17.267Z,1009.65
2017-06-08T00:21:27.263Z,1009.69
2017-06-08T00:21:37.253Z,1009.66
2017-06-08T00:21:47.250Z,1009.66
2017-06-08T00:21:57.245Z,1009.62
2017-06-08T00:22:06.903Z,1009.62
2017-06-08T00:22:17.234Z,1009.61
2017-06-08T00:22:27.229Z,1009.65
2017-06-08T00:22:36.889Z,1009.64
2017-06-08T00:22:47.216Z,1009.63
2017-06-08T00:22:57.215Z,1009.63
2017-06-08T00:23:07.213Z,1009.64
2017-06-08T00:23:17.202Z,1009.59
2017-06-08T00:23:27.198Z,1009.68
2017-06-08T00:23:37.192Z,1009.66
2017-06-08T00:23:47.185Z,1009.66
2017-06-08T00:23:56.845Z,1009.62
2017-06-08T00:24:06.838Z,1009.63
2017-06-08T00:24:17.168Z,1009.62
2017-06-08T00:24:27.166Z,1009.59
2017-06-08T00:24:37.159Z,1009.63
2017-06-08T00:24:46.819Z,1009.64
2017-06-08T00:24:57.148Z,1009.61
2017-06-08T00:25:07.145Z,1009.63
2017-06-08T00:25:17.138Z,1009.57
2017-06-08T00:25:27.132Z,1009.61
2017-06-08T00:25:37.128Z,1009.58
2017-06-08T00:25:47.124Z,1009.57
2017-06-08T00:25:57.116Z,1009.6
2017-06-08T00:26:07.109Z,1009.57
2017-06-08T00:26:16.767Z,1009.57
2017-06-08T00:26:27.101Z,1009.55
2017-06-08T00:26:37.447Z,1009.58
2017-06-08T00:26:47.087Z,1009.57
2017-06-08T00:26:57.083Z,1009.57
2017-06-08T00:27:07.082Z,1009.55
2017-06-08T00:27:16.736Z,1009.58
2017-06-08T00:27:27.071Z,1009.55
2017-06-08T00:27:37.063Z,1009.61
2017-06-08T00:27:47.059Z,1009.57
2017-06-08T00:27:57.052Z,1009.57
2017-06-08T00:28:06.708Z,1009.57
2017-06-08T00:28:17.044Z,1009.56
2017-06-08T00:28:27.036Z,1009.56
2017-06-08T00:28:37.032Z,1009.58
2017-06-08T00:28:46.691Z,1009.56
2017-06-08T00:28:57.018Z,1009.59
2017-06-08T00:29:07.015Z,1009.61
2017-06-08T00:29:17.007Z,1009.59
2017-06-08T00:29:27.004Z,1009.61
2017-06-08T00:29:36.999Z,1009.61
2017-06-08T00:29:46.992Z,1009.6
2017-06-08T00:29:56.652Z,1009.59
2017-06-08T00:30:06.979Z,1009.6
2017-06-08T00:30:16.976Z,1009.58
2017-06-08T00:30:26.970Z,1009.62
2017-06-08T00:30:36.967Z,1009.57
2017-06-08T00:30:46.960Z,1009.59
2017-06-08T00:30:56.955Z,1009.61
2017-06-08T00:31:06.950Z,1009.6
2017-06-08T00:31:16.944Z,1009.61
2017-06-08T00:31:26.939Z,1009.57
2017-06-08T00:31:36.933Z,1009.55
2017-06-08T00:31:46.927Z,1009.6
2017-06-08T00:31:56.923Z,1009.61
2017-06-08T00:32:06.950Z,1009.61
2017-06-08T00:32:16.909Z,1009.61
2017-06-08T00:32:26.908Z,1009.61
2017-06-08T00:32:36.568Z,1009.63
2017-06-08T00:32:46.895Z,1009.68
2017-06-08T00:32:56.891Z,1009.65
2017-06-08T00:33:06.887Z,1009.65
2017-06-08T00:33:16.882Z,1009.63
2017-06-08T00:33:26.872Z,1009.62
2017-06-08T00:33:36.871Z,1009.65
2017-06-08T00:33:46.536Z,1009.63
2017-06-08T00:33:56.856Z,1009.64
2017-06-08T00:34:06.521Z,1009.64
2017-06-08T00:34:16.847Z,1009.62
2017-06-08T00:34:26.844Z,1009.66
2017-06-08T00:34:36.880Z,1009.61
2017-06-08T00:34:46.834Z,1009.61
2017-06-08T00:34:56.494Z,1009.63
2017-06-08T00:35:06.486Z,1009.65
2017-06-08T00:35:17.168Z,1009.61
2017-06-08T00:35:26.810Z,1009.64
2017-06-08T00:35:36.807Z,1009.57
2017-06-08T00:35:46.801Z,1009.58
2017-06-08T00:35:56.792Z,1009.63
2017-06-08T00:36:06.791Z,1009.68
2017-06-08T00:36:16.784Z,1009.62
2017-06-08T00:36:26.781Z,1009.66
2017-06-08T00:36:36.772Z,1009.63
2017-06-08T00:36:46.769Z,1009.67
2017-06-08T00:36:56.761Z,1009.67
2017-06-08T00:37:06.761Z,1009.69
2017-06-08T00:37:16.750Z,1009.64
2017-06-08T00:37:26.744Z,1009.66
2017-06-08T00:37:36.743Z,1009.64
2017-06-08T00:37:46.735Z,1009.67
2017-06-08T00:37:56.730Z,1009.68
2017-06-08T00:38:06.723Z,1009.66
2017-06-08T00:38:16.722Z,1009.68
2017-06-08T00:38:26.717Z,1009.68
2017-06-08T00:38:36.711Z,1009.66
2017-06-08T00:38:46.702Z,1009.69
2017-06-08T00:38:57.053Z,1009.67
2017-06-08T00:39:06.695Z,1009.71
2017-06-08T00:39:16.940Z,1009.7
2017-06-08T00:39:26.683Z,1009.69
2017-06-08T00:39:36.344Z,1009.68
2017-06-08T00:39:46.673Z,1009.65
2017-06-08T00:39:56.667Z,1009.7
2017-06-08T00:40:06.657Z,1009.67
2017-06-08T00:40:16.656Z,1009.66
2017-06-08T00:40:26.648Z,1009.69
2017-06-08T00:40:36.656Z,1009.68
2017-06-08T00:40:46.305Z,1009.71
2017-06-08T00:40:56.634Z,1009.65
2017-06-08T00:41:06.631Z,1009.63
2017-06-08T00:41:16.624Z,1009.71
2017-06-08T00:41:26.982Z,1009.66
2017-06-08T00:41:36.614Z,1009.65
2017-06-08T00:41:46.647Z,1009.68
2017-06-08T00:41:56.600Z,1009.66
2017-06-08T00:42:06.262Z,1009.68
2017-06-08T00:42:16.590Z,1009.66
2017-06-08T00:42:26.584Z,1009.65
2017-06-08T00:42:36.582Z,1009.63
2017-06-08T00:42:46.573Z,1009.68
2017-06-08T00:42:56.570Z,1009.69
2017-06-08T00:43:06.567Z,1009.69
2017-06-08T00:43:16.222Z,1009.7
2017-06-08T00:43:26.552Z,1009.68
2017-06-08T00:43:36.548Z,1009.68
2017-06-08T00:43:46.541Z,1009.7
2017-06-08T00:43:56.537Z,1009.69
2017-06-08T00:44:06.196Z,1009.7
2017-06-08T00:44:16.442Z,1009.7
2017-06-08T00:44:26.186Z,1009.7
2017-06-08T00:44:36.518Z,1009.7
2017-06-08T00:44:46.513Z,1009.73
2017-06-08T00:44:56.506Z,1009.7
2017-06-08T00:45:06.499Z,1009.7
2017-06-08T00:45:16.495Z,1009.67
2017-06-08T00:45:26.491Z,1009.69
2017-06-08T00:45:36.484Z,1009.69
2017-06-08T00:45:46.480Z,1009.74
2017-06-08T00:45:56.474Z,1009.69
2017-06-08T00:46:06.466Z,1009.73
2017-06-08T00:46:16.128Z,1009.7
2017-06-08T00:46:26.455Z,1009.72
2017-06-08T00:46:36.451Z,1009.66
2017-06-08T00:46:46.447Z,1009.72
2017-06-08T00:46:56.443Z,1009.75
2017-06-08T00:47:06.438Z,1009.72
2017-06-08T00:47:16.433Z,1009.74
2017-06-08T00:47:26.425Z,1009.68
2017-06-08T00:47:36.437Z,1009.72
2017-06-08T00:47:46.413Z,1009.73
2017-06-08T00:47:56.411Z,1009.72
2017-06-08T00:48:06.406Z,1009.71
2017-06-08T00:48:16.398Z,1009.76
2017-06-08T00:48:26.391Z,1009.72
2017-06-08T00:48:36.388Z,1009.69
2017-06-08T00:48:46.380Z,1009.71
2017-06-08T00:48:56.374Z,1009.68
2017-06-08T00:49:06.368Z,1009.7
2017-06-08T00:49:16.616Z,1009.66
2017-06-08T00:49:26.360Z,1009.71
2017-06-08T00:49:36.357Z,1009.67
2017-06-08T00:49:46.348Z,1009.68
2017-06-08T00:49:56.341Z,1009.65
2017-06-08T00:50:06.341Z,1009.69
2017-06-08T00:50:15.999Z,1009.69
2017-06-08T00:50:26.331Z,1009.71
2017-06-08T00:50:36.324Z,1009.68
2017-06-08T00:50:46.315Z,1009.67
2017-06-08T00:50:56.311Z,1009.68
2017-06-08T00:51:06.306Z,1009.66
2017-06-08T00:51:16.304Z,1009.68
2017-06-08T00:51:26.293Z,1009.74
2017-06-08T00:51:36.289Z,1009.7
2017-06-08T00:51:46.686Z,1009.72
2017-06-08T00:51:56.280Z,1009.71
2017-06-08T00:52:06.277Z,1009.7
2017-06-08T00:52:15.936Z,1009.65
2017-06-08T00:52:26.264Z,1009.71
2017-06-08T00:52:36.256Z,1009.75
2017-06-08T00:52:46.253Z,1009.73
2017-06-08T00:52:56.246Z,1009.71
2017-06-08T00:53:06.239Z,1009.76
2017-06-08T00:53:16.238Z,1009.7
2017-06-08T00:53:26.231Z,1009.71
2017-06-08T00:53:36.226Z,1009.72
2017-06-08T00:53:46.220Z,1009.73
2017-06-08T00:53:56.218Z,1009.72
2017-06-08T00:54:06.227Z,1009.67
2017-06-08T00:54:16.453Z,1009.67
2017-06-08T00:54:26.199Z,1009.7
2017-06-08T00:54:36.193Z,1009.69
2017-06-08T00:54:46.225Z,1009.7
2017-06-08T00:54:56.185Z,1009.71
2017-06-08T00:55:06.181Z,1009.65
2017-06-08T00:55:15.835Z,1009.69
2017-06-08T00:55:26.168Z,1009.67
2017-06-08T00:55:35.827Z,1009.64
2017-06-08T00:55:46.155Z,1009.66
2017-06-08T00:55:55.817Z,1009.68
2017-06-08T00:56:05.810Z,1009.71
2017-06-08T00:56:16.140Z,1009.66
2017-06-08T00:56:26.137Z,1009.65
2017-06-08T00:56:36.131Z,1009.65
2017-06-08T00:56:46.127Z,1009.63
2017-06-08T00:56:56.122Z,1009.65
2017-06-08T00:57:05.778Z,1009.72
2017-06-08T00:57:16.108Z,1009.68
2017-06-08T00:57:26.101Z,1009.68
2017-06-08T00:57:36.098Z,1009.69
2017-06-08T00:57:46.095Z,1009.65
2017-06-08T00:57:56.086Z,1009.7
2017-06-08T00:58:06.082Z,1009.68
2017-06-08T00:58:16.077Z,1009.69
2017-06-08T00:58:26.072Z,1009.7
2017-06-08T00:58:35.731Z,1009.68
2017-06-08T00:58:46.058Z,1009.63
2017-06-08T00:58:56.054Z,1009.73
2017-06-08T00:59:06.405Z,1009.7
2017-06-08T00:59:16.047Z,1009.68
2017-06-08T00:59:26.035Z,1009.68
2017-06-08T00:59:36.042Z,1009.71
2017-06-08T00:59:45.691Z,1009.7
2017-06-08T00:59:56.376Z,1009.67
2017-06-08T01:00:05.680Z,1009.63
2017-06-08T01:00:16.010Z,1009.61
2017-06-08T01:00:26.005Z,1009.68
2017-06-08T01:00:35.999Z,1009.7
2017-06-08T01:00:45.663Z,1009.67
2017-06-08T01:00:55.989Z,1009.71
2017-06-08T01:01:05.987Z,1009.72
2017-06-08T01:01:15.981Z,1009.66
2017-06-08T01:01:25.973Z,1009.7
2017-06-08T01:01:35.631Z,1009.69
2017-06-08T01:01:45.965Z,1009.69
2017-06-08T01:01:55.957Z,1009.67
2017-06-08T01:02:05.617Z,1009.76
2017-06-08T01:02:15.948Z,1009.73
2017-06-08T01:02:25.941Z,1009.71
2017-06-08T01:02:35.939Z,1009.68
2017-06-08T01:02:45.930Z,1009.71
2017-06-08T01:02:55.925Z,1009.73
2017-06-08T01:03:05.919Z,1009.7
2017-06-08T01:03:15.914Z,1009.67
2017-06-08T01:03:25.940Z,1009.7
2017-06-08T01:03:35.902Z,1009.7
2017-06-08T01:03:45.901Z,1009.69
2017-06-08T01:03:55.894Z,1009.7
2017-06-08T01:04:05.886Z,1009.75
2017-06-08T01:04:15.884Z,1009.67
2017-06-08T01:04:25.879Z,1009.7
2017-06-08T01:04:35.872Z,1009.69
2017-06-08T01:04:45.866Z,1009.73
2017-06-08T01:04:55.860Z,1009.72
2017-06-08T01:05:05.859Z,1009.69
2017-06-08T01:05:15.849Z,1009.7
2017-06-08T01:05:25.845Z,1009.72
2017-06-08T01:05:35.503Z,1009.73
2017-06-08T01:05:45.834Z,1009.72
2017-06-08T01:05:55.831Z,1009.71
2017-06-08T01:06:05.821Z,1009.71
2017-06-08T01:06:15.819Z,1009.75
2017-06-08T01:06:25.816Z,1009.75
2017-06-08T01:06:35.475Z,1009.74
2017-06-08T01:06:45.835Z,1009.73
2017-06-08T01:06:55.797Z,1009.7
2017-06-08T01:07:05.794Z,1009.76
2017-06-08T01:07:15.786Z,1009.74
2017-06-08T01:07:25.447Z,1009.79
2017-06-08T01:07:35.106Z,1009.73
2017-06-08T01:07:46.139Z,1009.71
2017-06-08T01:07:55.764Z,1009.74
2017-06-08T01:08:05.759Z,1009.73
2017-06-08T01:08:15.751Z,1009.72
2017-06-08T01:08:25.747Z,1009.79
2017-06-08T01:08:35.417Z,1009.76
2017-06-08T01:08:45.737Z,1009.76
2017-06-08T01:08:55.730Z,1009.73
2017-06-08T01:09:05.728Z,1009.74
2017-06-08T01:09:15.999Z,1009.71
2017-06-08T01:09:25.714Z,1009.72
2017-06-08T01:09:35.377Z,1009.73
2017-06-08T01:09:45.706Z,1009.69
2017-06-08T01:09:55.699Z,1009.71
2017-06-08T01:10:05.362Z,1009.74
2017-06-08T01:10:15.686Z,1009.73
2017-06-08T01:10:25.682Z,1009.8
2017-06-08T01:10:35.679Z,1009.76
2017-06-08T01:10:45.670Z,1009.73
2017-06-08T01:10:55.669Z,1009.75
2017-06-08T01:11:05.662Z,1009.75
2017-06-08T01:11:15.657Z,1009.78
2017-06-08T01:11:25.652Z,1009.73
2017-06-08T01:11:35.651Z,1009.72
2017-06-08T01:11:45.644Z,1009.73
2017-06-08T01:11:55.636Z,1009.74
2017-06-08T01:12:05.630Z,1009.73
2017-06-08T01:12:15.625Z,1009.72
2017-06-08T01:12:25.284Z,1009.75
2017-06-08T01:12:35.278Z,1009.77
2017-06-08T01:12:44.942Z,1009.79
2017-06-08T01:12:55.603Z,1009.71
2017-06-08T01:13:05.595Z,1009.71
2017-06-08T01:13:15.593Z,1009.75
2017-06-08T01:13:25.585Z,1009.7
2017-06-08T01:13:35.582Z,1009.73
2017-06-08T01:13:45.578Z,1009.74
2017-06-08T01:13:55.571Z,1009.72
2017-06-08T01:14:05.565Z,1009.72
2017-06-08T01:14:15.810Z,1009.71
2017-06-08T01:14:25.556Z,1009.75
2017-06-08T01:14:35.549Z,1009.71
2017-06-08T01:14:45.542Z,1009.71
2017-06-08T01:14:55.541Z,1009.72
2017-06-08T01:15:05.534Z,1009.71
2017-06-08T01:15:15.527Z,1009.7
2017-06-08T01:15:25.524Z,1009.72
2017-06-08T01:15:35.517Z,1009.74
2017-06-08T01:15:45.512Z,1009.73
2017-06-08T01:15:55.507Z,1009.71
2017-06-08T01:16:05.497Z,1009.71
2017-06-08T01:16:15.495Z,1009.75
2017-06-08T01:16:25.491Z,1009.74
2017-06-08T01:16:35.484Z,1009.77
2017-06-08T01:16:45.481Z,1009.71
2017-06-08T01:16:55.474Z,1009.72
2017-06-08T01:17:05.467Z,1009.81
2017-06-08T01:17:15.462Z,1009.74
2017-06-08T01:17:25.458Z,1009.75
2017-06-08T01:17:35.452Z,1009.76
2017-06-08T01:17:45.449Z,1009.74
2017-06-08T01:17:55.444Z,1009.73
2017-06-08T01:18:05.434Z,1009.8
2017-06-08T01:18:15.431Z,1009.76
2017-06-08T01:18:25.425Z,1009.76
2017-06-08T01:18:35.422Z,1009.77
2017-06-08T01:18:45.414Z,1009.73
2017-06-08T01:18:55.407Z,1009.78
2017-06-08T01:19:05.406Z,1009.78
2017-06-08T01:19:15.651Z,1009.82
2017-06-08T01:19:25.391Z,1009.77
2017-06-08T01:19:35.747Z,1009.74
2017-06-08T01:19:45.384Z,1009.79
2017-06-08T01:19:55.413Z,1009.82
2017-06-08T01:20:05.726Z,1009.75
2017-06-08T01:20:15.368Z,1009.76
2017-06-08T01:20:25.364Z,1009.77
2017-06-08T01:20:35.356Z,1009.77
2017-06-08T01:20:45.352Z,1009.79
2017-06-08T01:20:55.343Z,1009.79
2017-06-08T01:21:05.341Z,1009.76
2017-06-08T01:21:15.334Z,1009.81
2017-06-08T01:21:25.330Z,1009.78
2017-06-08T01:21:34.989Z,1009.76
2017-06-08T01:21:45.320Z,1009.72
2017-06-08T01:21:55.679Z,1009.76
2017-06-08T01:22:05.305Z,1009.76
2017-06-08T01:22:15.300Z,1009.81
2017-06-08T01:22:25.294Z,1009.77
2017-06-08T01:22:35.296Z,1009.79
2017-06-08T01:22:45.286Z,1009.78
2017-06-08T01:22:55.279Z,1009.77
2017-06-08T01:23:05.276Z,1009.77
2017-06-08T01:23:15.269Z,1009.74
2017-06-08T01:23:25.269Z,1009.79
2017-06-08T01:23:34.923Z,1009.79
2017-06-08T01:23:45.253Z,1009.79
2017-06-08T01:23:55.249Z,1009.76
2017-06-08T01:24:05.242Z,1009.77
2017-06-08T01:24:15.486Z,1009.76
2017-06-08T01:24:25.231Z,1009.76
2017-06-08T01:24:35.224Z,1009.8
2017-06-08T01:24:44.887Z,1009.78
2017-06-08T01:24:54.882Z,1009.78
2017-06-08T01:25:05.209Z,1009.81
2017-06-08T01:25:15.205Z,1009.78
2017-06-08T01:25:25.199Z,1009.77
2017-06-08T01:25:35.197Z,1009.79
2017-06-08T01:25:45.191Z,1009.75
2017-06-08T01:25:55.187Z,1009.79
2017-06-08T01:26:05.224Z,1009.78
2017-06-08T01:26:15.171Z,1009.8
2017-06-08T01:26:25.168Z,1009.79
2017-06-08T01:26:35.163Z,1009.76
2017-06-08T01:26:45.157Z,1009.8
2017-06-08T01:26:55.156Z,1009.76
2017-06-08T01:27:05.148Z,1009.73
2017-06-08T01:27:15.143Z,1009.73
2017-06-08T01:27:24.803Z,1009.76
2017-06-08T01:27:35.130Z,1009.8
2017-06-08T01:27:45.129Z,1009.74
2017-06-08T01:27:55.122Z,1009.76
2017-06-08T01:28:05.113Z,1009.74
2017-06-08T01:28:15.111Z,1009.77
2017-06-08T01:28:24.435Z,1009.76
2017-06-08T01:28:34.427Z,1009.72
2017-06-08T01:28:45.094Z,1009.72
2017-06-08T01:28:55.088Z,1009.71
2017-06-08T01:29:05.083Z,1009.71
2017-06-08T01:29:15.080Z,1009.73
2017-06-08T01:29:25.071Z,1009.71
2017-06-08T01:29:35.065Z,1009.73
2017-06-08T01:29:44.857Z,1009.7
2017-06-08T01:29:55.057Z,1009.69
2017-06-08T01:30:05.051Z,1009.67
2017-06-08T01:30:15.047Z,1009.68
2017-06-08T01:30:25.035Z,1009.68
2017-06-08T01:30:35.036Z,1009.68
2017-06-08T01:30:45.027Z,1009.68
2017-06-08T01:30:55.024Z,1009.71
2017-06-08T01:31:05.018Z,1009.66
2017-06-08T01:31:14.674Z,1009.67
2017-06-08T01:31:25.009Z,1009.66
2017-06-08T01:31:35.004Z,1009.72
2017-06-08T01:31:44.996Z,1009.68
2017-06-08T01:31:54.658Z,1009.67
2017-06-08T01:32:04.987Z,1009.66
2017-06-08T01:32:14.979Z,1009.67
2017-06-08T01:32:24.974Z,1009.69
2017-06-08T01:32:34.967Z,1009.7
2017-06-08T01:32:44.965Z,1009.72
2017-06-08T01:32:54.957Z,1009.72
2017-06-08T01:33:04.953Z,1009.74
2017-06-08T01:33:14.948Z,1009.69
2017-06-08T01:33:24.942Z,1009.68
2017-06-08T01:33:34.935Z,1009.66
2017-06-08T01:33:44.596Z,1009.69
2017-06-08T01:33:54.924Z,1009.67
2017-06-08T01:34:04.930Z,1009.69
2017-06-08T01:34:14.918Z,1009.68
2017-06-08T01:34:24.908Z,1009.67
2017-06-08T01:34:34.573Z,1009.7
2017-06-08T01:34:44.900Z,1009.67
2017-06-08T01:34:55.282Z,1009.67
2017-06-08T01:35:04.552Z,1009.68
2017-06-08T01:35:14.885Z,1009.68
2017-06-08T01:35:24.878Z,1009.69
2017-06-08T01:35:34.870Z,1009.71
2017-06-08T01:35:44.872Z,1009.66
2017-06-08T01:35:54.861Z,1009.7
2017-06-08T01:36:05.210Z,1009.66
2017-06-08T01:36:14.854Z,1009.71
2017-06-08T01:36:24.512Z,1009.74
2017-06-08T01:36:34.840Z,1009.69
2017-06-08T01:36:44.843Z,1009.7
2017-06-08T01:36:54.828Z,1009.7
2017-06-08T01:37:04.491Z,1009.68
2017-06-08T01:37:14.819Z,1009.71
2017-06-08T01:37:24.814Z,1009.68
2017-06-08T01:37:34.810Z,1009.73
2017-06-08T01:37:44.802Z,1009.74
2017-06-08T01:37:54.798Z,1009.73
2017-06-08T01:38:04.792Z,1009.76
2017-06-08T01:38:14.788Z,1009.76
2017-06-08T01:38:24.784Z,1009.72
2017-06-08T01:38:34.774Z,1009.73
2017-06-08T01:38:44.771Z,1009.72
2017-06-08T01:38:54.766Z,1009.7
2017-06-08T01:39:05.115Z,1009.72
2017-06-08T01:39:15.006Z,1009.72
2017-06-08T01:39:24.751Z,1009.76
2017-06-08T01:39:34.745Z,1009.78
2017-06-08T01:39:44.739Z,1009.74
2017-06-08T01:39:54.402Z,1009.77
2017-06-08T01:40:04.727Z,1009.76
2017-06-08T01:40:14.723Z,1009.78
2017-06-08T01:40:24.718Z,1009.78
2017-06-08T01:40:34.714Z,1009.79
2017-06-08T01:40:44.707Z,1009.75
2017-06-08T01:40:54.699Z,1009.76
2017-06-08T01:41:04.697Z,1009.73
2017-06-08T01:41:15.047Z,1009.76
2017-06-08T01:41:24.683Z,1009.74
2017-06-08T01:41:34.679Z,1009.74
2017-06-08T01:41:44.340Z,1009.76
2017-06-08T01:41:54.672Z,1009.79
2017-06-08T01:42:04.663Z,1009.79
2017-06-08T01:42:14.661Z,1009.78
2017-06-08T01:42:24.650Z,1009.76
2017-06-08T01:42:35.017Z,1009.78
2017-06-08T01:42:44.996Z,1009.8
2017-06-08T01:42:54.638Z,1009.8
2017-06-08T01:43:04.633Z,1009.8
2017-06-08T01:43:14.975Z,1009.75
2017-06-08T01:43:24.623Z,1009.79
2017-06-08T01:43:34.614Z,1009.8
2017-06-08T01:43:44.608Z,1009.77
2017-06-08T01:43:54.269Z,1009.77
2017-06-08T01:44:04.600Z,1009.77
2017-06-08T01:44:14.842Z,1009.76
2017-06-08T01:44:24.587Z,1009.74
2017-06-08T01:44:34.582Z,1009.78
2017-06-08T01:44:44.577Z,1009.78
2017-06-08T01:44:54.574Z,1009.77
2017-06-08T01:45:04.567Z,1009.78
2017-06-08T01:45:14.560Z,1009.79
2017-06-08T01:45:23.890Z,1009.78
2017-06-08T01:45:34.555Z,1009.82
2017-06-08T01:45:44.548Z,1009.84
2017-06-08T01:45:54.540Z,1009.86
2017-06-08T01:46:04.202Z,1009.79
2017-06-08T01:46:14.193Z,1009.8
2017-06-08T01:46:24.188Z,1009.8
2017-06-08T01:46:34.518Z,1009.8
2017-06-08T01:46:44.180Z,1009.79
2017-06-08T01:46:54.506Z,1009.79
2017-06-08T01:47:04.171Z,1009.78
2017-06-08T01:47:14.495Z,1009.79
2017-06-08T01:47:24.493Z,1009.77
2017-06-08T01:47:34.487Z,1009.81
2017-06-08T01:47:44.480Z,1009.82
2017-06-08T01:47:54.476Z,1009.79
2017-06-08T01:48:04.134Z,1009.85
2017-06-08T01:48:14.469Z,1009.81
2017-06-08T01:48:24.460Z,1009.78
2017-06-08T01:48:34.456Z,1009.8
2017-06-08T01:48:44.115Z,1009.77
2017-06-08T01:48:54.446Z,1009.8
2017-06-08T01:49:04.439Z,1009.76
2017-06-08T01:49:14.686Z,1009.81
2017-06-08T01:49:24.427Z,1009.83
2017-06-08T01:49:34.424Z,1009.77
2017-06-08T01:49:44.417Z,1009.77
2017-06-08T01:49:54.413Z,1009.8
2017-06-08T01:50:04.409Z,1009.8
2017-06-08T01:50:13.730Z,1009.81
2017-06-08T01:50:24.393Z,1009.82
2017-06-08T01:50:34.391Z,1009.79
2017-06-08T01:50:44.383Z,1009.78
2017-06-08T01:50:54.384Z,1009.77
2017-06-08T01:51:04.375Z,1009.81
2017-06-08T01:51:14.366Z,1009.8
2017-06-08T01:51:24.363Z,1009.82
2017-06-08T01:51:34.359Z,1009.79
2017-06-08T01:51:44.353Z,1009.79
2017-06-08T01:51:54.344Z,1009.75
2017-06-08T01:52:04.342Z,1009.75
2017-06-08T01:52:14.336Z,1009.77
2017-06-08T01:52:24.362Z,1009.77
2017-06-08T01:52:34.327Z,1009.81
2017-06-08T01:52:44.670Z,1009.76
2017-06-08T01:52:54.312Z,1009.77
2017-06-08T01:53:04.309Z,1009.8
2017-06-08T01:53:14.301Z,1009.82
2017-06-08T01:53:23.963Z,1009.81
2017-06-08T01:53:34.294Z,1009.77
2017-06-08T01:53:44.286Z,1009.8
2017-06-08T01:53:54.283Z,1009.81
2017-06-08T01:54:04.277Z,1009.86
2017-06-08T01:54:14.531Z,1009.83
2017-06-08T01:54:24.265Z,1009.83
2017-06-08T01:54:34.263Z,1009.82
2017-06-08T01:54:44.258Z,1009.81
2017-06-08T01:54:54.250Z,1009.83
2017-06-08T01:55:03.577Z,1009.81
2017-06-08T01:55:14.244Z,1009.85
2017-06-08T01:55:24.233Z,1009.84
2017-06-08T01:55:34.228Z,1009.84
2017-06-08T01:55:44.226Z,1009.86
2017-06-08T01:55:54.221Z,1009.88
2017-06-08T01:56:04.606Z,1009.87
2017-06-08T01:56:13.873Z,1009.79
2017-06-08T01:56:24.200Z,1009.83
2017-06-08T01:56:34.197Z,1009.84
2017-06-08T01:56:43.855Z,1009.8
2017-06-08T01:56:53.849Z,1009.89
2017-06-08T01:57:04.183Z,1009.89
2017-06-08T01:57:14.176Z,1009.86
2017-06-08T01:57:24.170Z,1009.88
2017-06-08T01:57:34.165Z,1009.82
2017-06-08T01:57:43.825Z,1009.84
2017-06-08T01:57:54.188Z,1009.8
2017-06-08T01:58:04.149Z,1009.82
2017-06-08T01:58:13.805Z,1009.8
2017-06-08T01:58:23.804Z,1009.79
2017-06-08T01:58:34.130Z,1009.87
2017-06-08T01:58:43.790Z,1009.83
2017-06-08T01:58:54.123Z,1009.81
2017-06-08T01:59:04.118Z,1009.83
2017-06-08T01:59:14.108Z,1009.84
2017-06-08T01:59:24.458Z,1009.84
2017-06-08T01:59:34.100Z,1009.81
2017-06-08T01:59:44.092Z,1009.83
2017-06-08T01:59:54.092Z,1009.8
2017-06-08T02:00:03.751Z,1009.85
2017-06-08T02:00:13.744Z,1009.89
2017-06-08T02:00:24.074Z,1009.83
2017-06-08T02:00:34.067Z,1009.86
2017-06-08T02:00:44.063Z,1009.89
2017-06-08T02:00:54.091Z,1009.83
2017-06-08T02:01:03.723Z,1009.81
2017-06-08T02:01:13.709Z,1009.85
2017-06-08T02:01:24.038Z,1009.85